Time;durP1;ratioP1;P1;durP2;ratioP2;P2;SDS_P1;SDS_P2;PMS_P1;PMS_P2;Temp;Humidity;BMP_temperature;BMP_pressure;BME280_temperature;BME280_humidity;BME280_pressure;Samples;Min_cycle;Max_cycle;Signal;HPM_P1;HPM_P2
2021/11/23 00:00:06;;;;;;;3.67;3.17;;;;;;;;;;5045841;28;20924;-59
2021/11/23 00:02:32;;;;;;;3.50;2.67;;;3.70;1.00;;;;;;5052798;28;20445;-59
2021/11/23 00:04:57;;;;;;;4.70;2.90;;;3.80;1.00;;;;;;5046515;28;20443;-58
2021/11/23 00:07:23;;;;;;;4.60;2.93;;;3.60;1.00;;;;;;5059129;28;20319;-59
2021/11/23 00:09:49;;;;;;;4.10;2.43;;;;;;;;;;5051155;28;20212;-60
2021/11/23 00:12:15;;;;;;;4.37;2.80;;;3.60;1.00;;;;;;5065348;28;20198;-60
2021/11/23 00:14:41;;;;;;;2.63;2.43;;;;;;;;;;5052511;28;20419;-59
2021/11/23 00:17:07;;;;;;;8.60;3.57;;;;;;;;;;5052247;28;20185;-59
2021/11/23 00:19:32;;;;;;;3.90;3.50;;;3.80;1.00;;;;;;5051409;28;20453;-59
2021/11/23 00:21:58;;;;;;;5.30;3.70;;;3.60;1.00;;;;;;5051742;28;20449;-59
2021/11/23 00:24:24;;;;;;;3.43;3.13;;;;;;;;;;5049933;28;20202;-60
2021/11/23 00:26:50;;;;;;;4.30;3.00;;;;;;;;;;5049730;28;20217;-60
2021/11/23 00:29:16;;;;;;;4.20;3.30;;;;;;;;;;5051985;28;20540;-59
2021/11/23 00:31:42;;;;;;;7.67;3.63;;;;;;;;;;5047778;28;20443;-59
2021/11/23 00:34:08;;;;;;;4.13;2.70;;;;;;;;;;5048797;28;20447;-58
2021/11/23 00:36:34;;;;;;;6.23;3.93;;;;;;;;;;5052752;28;20803;-59
2021/11/23 00:39:00;;;;;;;4.00;3.20;;;;;;;;;;5050768;28;20453;-59
2021/11/23 00:41:26;;;;;;;3.67;3.37;;;;;;;;;;5052428;28;20460;-59
2021/11/23 00:43:52;;;;;;;4.13;2.90;;;;;;;;;;5049600;28;20490;-59
2021/11/23 00:46:18;;;;;;;3.37;2.90;;;;;;;;;;5050745;28;20817;-59
2021/11/23 00:48:44;;;;;;;3.33;3.03;;;;;;;;;;5049684;28;20479;-59
2021/11/23 00:51:10;;;;;;;3.00;2.80;;;3.40;1.00;;;;;;5051241;28;20549;-59
2021/11/23 00:53:36;;;;;;;3.37;3.07;;;;;;;;;;5051780;28;20469;-59
2021/11/23 00:56:03;;;;;;;3.30;2.90;;;;;;;;;;5049119;28;20254;-59
2021/11/23 00:58:29;;;;;;;4.73;3.50;;;;;;;;;;5049935;28;20457;-59
2021/11/23 01:00:55;;;;;;;4.70;3.13;;;3.40;1.00;;;;;;5048070;28;20454;-60
2021/11/23 01:03:20;;;;;;;7.67;3.60;;;3.50;1.00;;;;;;5050736;28;20456;-59
2021/11/23 01:05:46;;;;;;;3.40;3.10;;;3.40;1.00;;;;;;5050537;28;20191;-58
2021/11/23 01:08:16;;;;;;;3.40;3.00;;;3.40;1.00;;;;;;5047737;28;20195;-59
2021/11/23 01:10:42;;;;;;;4.13;3.10;;;3.40;1.00;;;;;;5050453;28;20592;-59
2021/11/23 01:13:08;;;;;;;2.97;2.73;;;3.30;1.00;;;;;;5050949;28;20657;-59
2021/11/23 01:15:34;;;;;;;3.73;2.87;;;;;;;;;;5049431;28;20484;-59
2021/11/23 01:18:00;;;;;;;3.53;2.60;;;;;;;;;;5047615;28;20452;-59
2021/11/23 01:20:27;;;;;;;4.53;3.27;;;3.40;1.00;;;;;;5052135;28;20780;-58
2021/11/23 01:22:53;;;;;;;4.50;3.00;;;3.30;1.00;;;;;;5050161;28;20488;-58
2021/11/23 01:25:19;;;;;;;3.10;2.90;;;;;;;;;;5050117;28;20248;-59
2021/11/23 01:27:45;;;;;;;3.47;3.17;;;3.20;1.00;;;;;;5050554;28;20445;-59
2021/11/23 01:30:12;;;;;;;5.40;3.00;;;3.10;1.00;;;;;;5050154;28;20484;-60
2021/11/23 01:32:39;;;;;;;4.23;2.90;;;;;;;;;;5049885;28;20185;-58
2021/11/23 01:35:07;;;;;;;4.23;3.30;;;3.20;1.00;;;;;;5047117;28;20446;-59
2021/11/23 01:37:34;;;;;;;3.60;3.30;;;3.10;1.00;;;;;;5047649;28;20440;-59
2021/11/23 01:39:59;;;;;;;3.13;2.83;;;3.00;1.00;;;;;;5047590;28;20446;-57
2021/11/23 01:42:25;;;;;;;3.00;2.77;;;2.90;1.00;;;;;;5046695;28;20500;-58
2021/11/23 01:44:52;;;;;;;2.60;2.40;;;;;;;;;;5045979;28;20207;-60
2021/11/23 01:47:18;;;;;;;3.50;3.10;;;;;;;;;;5052526;28;20531;-59
2021/11/23 01:49:43;;;;;;;6.23;3.10;;;3.10;1.00;;;;;;5051395;28;20505;-58
2021/11/23 01:52:11;;;;;;;3.77;3.03;;;;;;;;;;5048786;28;20451;-57
2021/11/23 01:54:37;;;;;;;4.70;3.50;;;;;;;;;;5048953;28;20181;-59
2021/11/23 01:57:03;;;;;;;4.10;3.60;;;;;;;;;;5048788;28;20807;-58
2021/11/23 01:59:29;;;;;;;3.97;3.20;;;2.70;1.00;;;;;;5050507;28;20482;-58
2021/11/23 02:01:55;;;;;;;2.80;2.60;;;2.90;1.00;;;;;;5048377;28;20540;-59
2021/11/23 02:04:21;;;;;;;4.97;3.30;;;2.80;1.00;;;;;;5049399;28;20547;-58
2021/11/23 02:06:47;;;;;;;3.47;2.90;;;;;;;;;;5050315;28;20198;-58
2021/11/23 02:09:13;;;;;;;3.63;3.27;;;;;;;;;;5048971;28;20194;-58
2021/11/23 02:11:38;;;;;;;3.70;3.33;;;2.80;1.00;;;;;;5050753;28;20448;-58
2021/11/23 02:14:04;;;;;;;4.37;3.10;;;;;;;;;;5049197;28;20442;-59
2021/11/23 02:16:33;;;;;;;3.40;3.07;;;2.80;1.00;;;;;;5049518;28;20206;-59
2021/11/23 02:19:00;;;;;;;4.33;3.60;;;2.70;1.00;;;;;;5047944;28;20438;-59
2021/11/23 02:21:26;;;;;;;3.10;2.90;;;2.90;1.00;;;;;;5049661;28;20444;-59
2021/11/23 02:23:51;;;;;;;3.93;3.57;;;2.70;1.00;;;;;;5047824;28;20457;-59
2021/11/23 02:26:17;;;;;;;4.80;4.00;;;;;;;;;;5048528;28;20193;-59
2021/11/23 02:28:43;;;;;;;4.43;3.67;;;2.70;1.00;;;;;;5049668;28;20591;-59
2021/11/23 02:31:10;;;;;;;3.70;3.20;;;2.90;1.00;;;;;;5048480;28;20520;-58
2021/11/23 02:33:37;;;;;;;3.70;2.83;;;2.90;1.00;;;;;;5048525;28;20441;-59
2021/11/23 02:36:05;;;;;;;3.90;3.50;;;2.80;1.00;;;;;;5049176;28;20532;-59
2021/11/23 02:38:33;;;;;;;3.53;3.23;;;2.90;1.00;;;;;;5049779;28;20442;-59
2021/11/23 02:41:00;;;;;;;4.60;3.20;;;3.10;1.00;;;;;;5047786;28;20492;-59
2021/11/23 02:43:26;;;;;;;6.53;3.87;;;;;;;;;;5046591;28;20985;-58
2021/11/23 02:45:53;;;;;;;5.13;3.60;;;2.90;1.00;;;;;;5047578;28;20482;-59
2021/11/23 02:48:19;;;;;;;4.97;3.37;;;2.70;1.00;;;;;;5048021;28;21027;-60
2021/11/23 02:50:51;;;;;;;3.30;3.00;;;;;;;;;;5049623;28;20534;-58
2021/11/23 02:53:17;;;;;;;4.60;3.43;;;;;;;;;;5048969;28;20437;-58
2021/11/23 02:55:43;;;;;;;4.03;3.03;;;2.60;1.00;;;;;;5047797;28;20436;-58
2021/11/23 02:58:10;;;;;;;4.07;3.57;;;2.90;1.00;;;;;;5049313;28;20457;-58
2021/11/23 03:00:37;;;;;;;4.30;3.13;;;2.80;1.00;;;;;;5049171;28;20263;-58
2021/11/23 03:03:03;;;;;;;4.77;3.10;;;;;;;;;;5052866;28;20449;-58
2021/11/23 03:05:29;;;;;;;3.67;3.30;;;2.80;1.00;;;;;;5047597;28;20443;-58
2021/11/23 03:07:56;;;;;;;4.20;3.20;;;3.00;1.00;;;;;;5048257;28;20445;-59
2021/11/23 03:10:23;;;;;;;5.33;3.30;;;2.60;1.00;;;;;;5050302;28;20214;-59
2021/11/23 03:12:52;;;;;;;3.07;2.70;;;2.80;1.00;;;;;;5048590;28;20497;-59
2021/11/23 03:15:19;;;;;;;3.77;3.47;;;2.70;1.00;;;;;;5045758;28;20504;-58
2021/11/23 03:17:46;;;;;;;4.17;3.47;;;2.90;1.00;;;;;;5047965;28;20864;-58
2021/11/23 03:20:15;;;;;;;3.50;2.83;;;2.70;1.00;;;;;;5048452;28;20439;-58
2021/11/23 03:22:41;;;;;;;3.30;3.00;;;;;;;;;;5048997;28;20460;-58
2021/11/23 03:25:07;;;;;;;4.00;3.37;;;2.60;1.00;;;;;;5049362;28;20440;-59
2021/11/23 03:27:34;;;;;;;6.03;3.33;;;;;;;;;;5047853;28;20445;-58
2021/11/23 03:30:00;;;;;;;3.77;3.37;;;2.50;1.00;;;;;;5046069;28;20465;-59
2021/11/23 03:32:26;;;;;;;4.70;3.23;;;2.50;1.00;;;;;;5051221;28;20453;-58
2021/11/23 03:34:52;;;;;;;3.63;2.90;;;2.60;1.00;;;;;;5054456;28;20447;-59
2021/11/23 03:37:23;;;;;;;3.97;3.00;;;2.50;1.00;;;;;;5052477;28;20462;-58
2021/11/23 03:39:50;;;;;;;3.00;2.70;;;2.50;1.00;;;;;;5048486;28;20555;-59
2021/11/23 03:42:17;;;;;;;4.90;3.60;;;2.50;1.00;;;;;;5047750;28;20862;-58
2021/11/23 03:44:44;;;;;;;4.40;3.00;;;2.50;1.00;;;;;;5050216;28;20475;-59
2021/11/23 03:47:12;;;;;;;4.70;3.13;;;2.50;1.00;;;;;;5047139;28;20487;-59
2021/11/23 03:49:40;;;;;;;3.07;2.77;;;2.50;1.00;;;;;;5052152;28;20961;-59
2021/11/23 03:52:07;;;;;;;3.33;3.03;;;2.50;1.00;;;;;;5050951;28;20441;-59
2021/11/23 03:54:33;;;;;;;3.57;3.03;;;2.40;1.00;;;;;;5053044;28;20446;-58
2021/11/23 03:56:59;;;;;;;3.63;3.33;;;;;;;;;;5046571;28;20440;-58
2021/11/23 03:59:25;;;;;;;3.73;3.37;;;;;;;;;;5043494;28;20273;-59
2021/11/23 04:01:52;;;;;;;5.70;3.47;;;2.50;1.00;;;;;;5052548;28;20446;-58
2021/11/23 04:04:18;;;;;;;3.67;3.30;;;;;;;;;;5051689;28;20447;-58
2021/11/23 04:06:44;;;;;;;3.23;2.80;;;;;;;;;;5047721;28;20467;-58
2021/11/23 04:09:10;;;;;;;4.00;3.40;;;;;;;;;;5047921;28;20902;-58
2021/11/23 04:11:36;;;;;;;4.17;3.33;;;;;;;;;;5052898;28;20535;-59
2021/11/23 04:14:02;;;;;;;3.93;3.13;;;2.20;1.00;;;;;;5049264;28;20594;-58
2021/11/23 04:16:28;;;;;;;3.90;3.10;;;2.20;1.00;;;;;;5048255;28;20530;-59
2021/11/23 04:18:54;;;;;;;4.07;3.67;;;2.30;1.00;;;;;;5044068;28;20201;-59
2021/11/23 04:21:20;;;;;;;3.70;3.20;;;2.70;1.00;;;;;;5047034;28;20447;-58
2021/11/23 04:23:46;;;;;;;3.73;3.23;;;2.40;1.00;;;;;;5050584;28;20780;-58
2021/11/23 04:26:12;;;;;;;3.80;2.97;;;2.50;1.00;;;;;;5050796;28;20544;-60
2021/11/23 04:28:38;;;;;;;3.23;2.97;;;2.40;1.00;;;;;;5047866;28;20454;-59
2021/11/23 04:31:04;;;;;;;4.10;2.40;;;;;;;;;;5044193;28;21239;-59
2021/11/23 04:33:30;;;;;;;5.90;3.37;;;;;;;;;;5051922;28;20482;-59
2021/11/23 04:35:56;;;;;;;4.10;2.90;;;;;;;;;;5050407;28;20443;-58
2021/11/23 04:38:22;;;;;;;4.47;3.03;;;2.40;1.00;;;;;;5048609;28;20452;-59
2021/11/23 04:40:48;;;;;;;4.27;3.27;;;2.30;1.00;;;;;;5046477;28;20804;-57
2021/11/23 04:43:13;;;;;;;3.97;3.30;;;2.10;1.00;;;;;;5051364;28;20455;-58
2021/11/23 04:45:40;;;;;;;5.23;3.37;;;2.20;1.00;;;;;;5048739;28;20698;-58
2021/11/23 04:48:06;;;;;;;4.30;3.37;;;2.00;1.00;;;;;;5048743;28;20722;-59
2021/11/23 04:50:32;;;;;;;3.80;3.50;;;2.30;1.00;;;;;;5051579;28;20540;-59
2021/11/23 04:53:01;;;;;;;4.17;3.20;;;;;;;;;;5043771;28;20473;-59
2021/11/23 04:55:27;;;;;;;5.20;3.10;;;2.40;1.00;;;;;;5051743;28;20432;-59
2021/11/23 04:57:53;;;;;;;4.20;3.40;;;;;;;;;;5051750;28;21000;-60
2021/11/23 05:00:19;;;;;;;6.30;4.10;;;;;;;;;;5058122;28;20606;-58
2021/11/23 05:02:46;;;;;;;3.47;3.17;;;2.20;1.00;;;;;;5051323;28;20445;-59
2021/11/23 05:05:12;;;;;;;4.67;3.80;;;;;;;;;;5051907;28;20417;-59
2021/11/23 05:07:39;;;;;;;5.27;3.40;;;2.20;1.00;;;;;;5057233;28;20450;-59
2021/11/23 05:10:07;;;;;;;4.50;3.57;;;2.20;1.00;;;;;;5051409;28;20536;-58
2021/11/23 05:12:33;;;;;;;5.90;3.40;;;2.50;1.00;;;;;;5052003;28;20440;-58
2021/11/23 05:14:59;;;;;;;3.50;3.10;;;;;;;;;;5051402;28;20436;-57
2021/11/23 05:17:24;;;;;;;5.50;3.30;;;2.30;1.00;;;;;;5051421;28;20439;-59
2021/11/23 05:19:50;;;;;;;5.80;4.00;;;2.30;1.00;;;;;;5051575;28;21023;-58
2021/11/23 05:22:16;;;;;;;4.10;3.40;;;;;;;;;;5051615;28;20671;-62
2021/11/23 05:24:42;;;;;;;4.90;3.60;;;;;;;;;;5050827;28;20226;-58
2021/11/23 05:27:08;;;;;;;3.90;3.50;;;2.40;1.00;;;;;;5050389;28;20453;-58
2021/11/23 05:29:34;;;;;;;4.60;3.53;;;2.40;1.00;;;;;;5051318;28;20472;-59
2021/11/23 05:32:00;;;;;;;5.00;3.87;;;2.20;1.00;;;;;;5049550;28;20539;-58
2021/11/23 05:34:26;;;;;;;7.33;3.77;;;2.40;1.00;;;;;;5051265;28;20450;-58
2021/11/23 05:36:51;;;;;;;6.77;4.03;;;2.30;1.00;;;;;;5051285;28;20182;-58
2021/11/23 05:39:18;;;;;;;5.90;3.63;;;;;;;;;;5050314;28;20656;-58
2021/11/23 05:41:44;;;;;;;5.93;3.90;;;2.40;1.00;;;;;;5051029;28;20914;-58
2021/11/23 05:44:11;;;;;;;8.07;4.20;;;2.40;1.00;;;;;;5049943;28;20487;-58
2021/11/23 05:46:39;;;;;;;3.77;2.90;;;2.40;1.00;;;;;;5049702;28;20444;-58
2021/11/23 05:49:05;;;;;;;4.17;3.60;;;2.50;1.00;;;;;;5049361;28;20564;-57
2021/11/23 05:51:31;;;;;;;4.63;4.23;;;;;;;;;;5048902;28;21021;-57
2021/11/23 05:53:57;;;;;;;5.50;3.60;;;;;;;;;;5049597;28;20447;-58
2021/11/23 05:56:23;;;;;;;4.63;3.73;;;;;;;;;;5050153;28;20448;-59
2021/11/23 05:58:49;;;;;;;4.80;3.93;;;2.50;1.00;;;;;;5049634;28;20452;-58
2021/11/23 06:01:15;;;;;;;4.50;4.10;;;2.60;1.00;;;;;;5046915;28;20798;-58
2021/11/23 06:03:41;;;;;;;5.33;4.00;;;2.60;1.00;;;;;;5050218;28;20201;-58
2021/11/23 06:06:07;;;;;;;5.00;3.90;;;2.60;1.00;;;;;;5050111;28;20933;-58
2021/11/23 06:08:34;;;;;;;5.03;4.50;;;;;;;;;;5050839;28;20466;-60
2021/11/23 06:10:59;;;;;;;6.67;4.37;;;2.50;1.00;;;;;;5049855;28;20498;-57
2021/11/23 06:13:25;;;;;;;5.30;4.33;;;3.30;1.00;;;;;;5050408;28;20448;-58
2021/11/23 06:15:51;;;;;;;5.63;3.87;;;3.10;1.00;;;;;;5060120;28;20183;-59
2021/11/23 06:18:17;;;;;;;5.00;4.07;;;;;;;;;;5048976;28;20181;-57
2021/11/23 06:20:48;;;;;;;4.97;3.73;;;2.60;1.00;;;;;;5049545;28;20544;-58
2021/11/23 06:23:16;;;;;;;4.93;3.87;;;;;;;;;;5050344;28;20456;-58
2021/11/23 06:25:46;;;;;;;5.10;3.70;;;2.60;1.00;;;;;;5049118;28;20460;-58
2021/11/23 06:28:13;;;;;;;5.37;4.30;;;2.60;1.00;;;;;;5050309;28;20454;-59
2021/11/23 06:30:39;;;;;;;6.37;5.00;;;;;;;;;;5049658;28;20461;-59
2021/11/23 06:33:05;;;;;;;6.20;3.80;;;;;;;;;;5049211;28;20456;-58
2021/11/23 06:35:31;;;;;;;9.20;4.13;;;2.70;1.00;;;;;;5050186;28;20449;-59
2021/11/23 06:37:57;;;;;;;5.07;4.43;;;;;;;;;;5050201;28;20442;-57
2021/11/23 06:40:23;;;;;;;5.13;4.63;;;2.70;1.00;;;;;;5050361;28;20572;-57
2021/11/23 06:42:49;;;;;;;4.90;3.97;;;;;;;;;;5050144;28;20432;-57
2021/11/23 06:45:15;;;;;;;5.83;4.47;;;;;;;;;;5050229;28;20606;-59
2021/11/23 06:47:41;;;;;;;8.10;5.10;;;;;;;;;;5049761;28;20487;-57
2021/11/23 06:50:08;;;;;;;7.03;5.40;;;3.00;1.00;;;;;;5050023;28;20957;-59
2021/11/23 06:52:35;;;;;;;4.50;3.87;;;3.10;1.00;;;;;;5049678;28;20449;-60
2021/11/23 06:55:00;;;;;;;4.40;3.93;;;3.00;1.00;;;;;;5050251;28;20556;-60
2021/11/23 06:57:26;;;;;;;6.23;4.27;;;3.40;1.00;;;;;;5049988;28;20523;-59
2021/11/23 06:59:52;;;;;;;6.23;4.40;;;3.10;1.00;;;;;;5049130;28;20273;-59
2021/11/23 07:02:17;;;;;;;10.57;6.20;;;3.30;1.00;;;;;;5047854;28;20277;-59
2021/11/23 07:04:43;;;;;;;4.70;4.30;;;3.00;1.00;;;;;;5049611;28;20191;-60
2021/11/23 07:07:10;;;;;;;5.70;5.10;;;3.10;1.00;;;;;;5049089;28;20246;-58
2021/11/23 07:09:36;;;;;;;10.23;4.27;;;3.10;1.00;;;;;;5049988;28;20218;-58
2021/11/23 07:12:03;;;;;;;5.03;4.63;;;;;;;;;;5049609;28;20912;-58
2021/11/23 07:14:29;;;;;;;5.70;4.70;;;;;;;;;;5048865;28;20424;-59
2021/11/23 07:16:55;;;;;;;7.60;5.50;;;;;;;;;;5049801;28;20455;-57
2021/11/23 07:19:21;;;;;;;6.53;4.23;;;;;;;;;;5049672;28;20446;-59
2021/11/23 07:21:47;;;;;;;4.40;4.00;;;;;;;;;;5048795;28;20966;-59
2021/11/23 07:24:13;;;;;;;4.77;4.07;;;3.40;1.00;;;;;;5048426;28;20959;-59
2021/11/23 07:26:39;;;;;;;5.57;4.60;;;;;;;;;;5049800;28;20491;-58
2021/11/23 07:29:06;;;;;;;9.00;4.90;;;;;;;;;;5050089;28;20221;-60
2021/11/23 07:31:32;;;;;;;7.47;4.70;;;;;;;;;;5048973;28;20467;-59
2021/11/23 07:33:58;;;;;;;5.57;3.70;;;;;;;;;;5049715;28;20522;-58
2021/11/23 07:36:25;;;;;;;5.23;4.30;;;3.90;1.00;;;;;;5049882;28;20449;-59
2021/11/23 07:38:52;;;;;;;4.87;4.10;;;;;;;;;;5049771;28;20446;-59
2021/11/23 07:41:18;;;;;;;5.20;4.30;;;4.00;1.00;;;;;;5056716;28;20445;-59
2021/11/23 07:43:44;;;;;;;6.10;4.33;;;;;;;;;;5049777;28;20989;-59
2021/11/23 07:46:11;;;;;;;7.90;4.47;;;4.20;1.00;;;;;;5049274;28;20442;-59
2021/11/23 07:48:37;;;;;;;9.60;5.60;;;;;;;;;;5048983;28;20476;-59
2021/11/23 07:51:04;;;;;;;6.50;5.00;;;;;;;;;;5048806;28;21011;-58
2021/11/23 07:53:30;;;;;;;7.10;5.10;;;4.10;1.00;;;;;;5048369;28;20476;-57
2021/11/23 07:55:56;;;;;;;7.10;5.07;;;4.40;1.00;;;;;;5049234;28;20442;-59
2021/11/23 07:58:21;;;;;;;17.17;5.37;;;4.20;1.00;;;;;;5056936;28;20439;-58
2021/11/23 08:00:47;;;;;;;7.47;4.60;;;4.40;1.00;;;;;;5049207;28;20299;-60
2021/11/23 08:03:14;;;;;;;8.40;5.10;;;4.60;1.00;;;;;;5049040;28;20253;-57
2021/11/23 08:05:40;;;;;;;15.23;6.63;;;4.80;1.00;;;;;;5049836;28;20445;-59
2021/11/23 08:08:09;;;;;;;13.57;5.30;;;5.00;1.00;;;;;;5049450;28;20453;-60
2021/11/23 08:10:35;;;;;;;6.10;3.50;;;;;;;;;;5057866;28;20513;-58
2021/11/23 08:13:01;;;;;;;6.57;3.77;;;;;;;;;;5049397;28;20427;-59
2021/11/23 08:15:28;;;;;;;9.57;4.60;;;;;;;;;;5049946;28;20427;-59
2021/11/23 08:17:54;;;;;;;6.23;4.60;;;5.70;1.00;;;;;;5051191;28;20427;-58
2021/11/23 08:20:20;;;;;;;8.60;5.10;;;;;;;;;;5053833;28;20438;-58
2021/11/23 08:22:48;;;;;;;7.53;4.97;;;6.00;1.00;;;;;;5053424;28;20443;-58
2021/11/23 08:25:14;;;;;;;7.60;5.20;;;;;;;;;;5053386;28;20452;-60
2021/11/23 08:27:40;;;;;;;5.17;3.80;;;;;;;;;;5053307;28;20496;-59
2021/11/23 08:30:08;;;;;;;4.50;4.00;;;6.00;1.00;;;;;;5052703;28;21033;-60
2021/11/23 08:32:34;;;;;;;5.30;3.10;;;;;;;;;;5053595;28;20438;-57
2021/11/23 08:35:01;;;;;;;6.73;2.90;;;;;;;;;;5053028;28;20475;-59
2021/11/23 08:37:27;;;;;;;8.07;2.50;;;;;;;;;;5053102;28;20518;-58
2021/11/23 08:39:56;;;;;;;6.13;3.40;;;6.30;1.00;;;;;;5053057;28;20507;-59
2021/11/23 08:42:23;;;;;;;4.50;3.93;;;6.60;1.00;;;;;;5052924;28;20447;-61
2021/11/23 08:44:49;;;;;;;2.83;2.23;;;7.10;1.00;;;;;;5051770;28;20456;-59
2021/11/23 08:47:16;;;;;;;2.10;1.60;;;;;;;;;;5052731;28;20824;-58
2021/11/23 08:49:42;;;;;;;3.30;1.90;;;;;;;;;;5053002;28;21023;-58
2021/11/23 08:52:08;;;;;;;3.93;2.10;;;;;;;;;;5052816;28;20427;-60
2021/11/23 08:54:34;;;;;;;2.43;1.70;;;;;;;;;;5052957;28;20427;-59
2021/11/23 08:57:05;;;;;;;2.73;1.60;;;;;;;;;;5052628;28;20427;-58
2021/11/23 08:59:39;;;;;;;2.70;2.00;;;;;;;;;;5052439;28;20433;-58
2021/11/23 09:02:06;;;;;;;5.27;1.83;;;;;;;;;;5071670;28;20441;-59
2021/11/23 09:04:34;;;;;;;4.27;2.30;;;7.40;1.00;;;;;;5072697;28;21030;-59
2021/11/23 09:07:03;;;;;;;2.20;1.87;;;7.40;1.00;;;;;;5071253;28;20441;-59
2021/11/23 09:09:29;;;;;;;10.20;2.00;;;7.60;1.00;;;;;;5072221;28;20481;-58
2021/11/23 09:11:57;;;;;;;3.20;1.80;;;7.80;1.00;;;;;;5072292;28;20514;-59
2021/11/23 09:14:24;;;;;;;8.63;2.90;;;;;;;;;;5071064;28;20515;-59
2021/11/23 09:16:50;;;;;;;3.40;2.50;;;;;;;;;;5072437;28;20820;-58
2021/11/23 09:19:16;;;;;;;2.17;1.97;;;8.20;1.00;;;;;;5072493;28;20445;-58
2021/11/23 09:21:42;;;;;;;4.00;2.30;;;7.90;1.00;;;;;;5072372;28;20458;-59
2021/11/23 09:24:08;;;;;;;3.80;1.43;;;;;;;;;;5070996;28;20450;-60
2021/11/23 09:26:34;;;;;;;4.17;2.03;;;8.00;1.00;;;;;;5052814;28;20203;-59
2021/11/23 09:29:00;;;;;;;3.70;2.33;;;7.80;1.00;;;;;;5051181;28;20878;-61
2021/11/23 09:31:26;;;;;;;6.03;2.20;;;;;;;;;;5050232;28;20463;-60
2021/11/23 09:33:52;;;;;;;8.43;2.43;;;8.00;1.00;;;;;;5052455;28;20187;-59
2021/11/23 09:36:18;;;;;;;5.80;2.80;;;;;;;;;;5052095;28;20469;-59
2021/11/23 09:38:44;;;;;;;7.67;2.43;;;;;;;;;;5051911;28;20441;-60
2021/11/23 09:41:10;;;;;;;6.03;2.57;;;;;;;;;;5054373;28;20446;-59
2021/11/23 09:43:39;;;;;;;3.90;2.20;;;8.00;1.00;;;;;;5071541;28;20449;-59
2021/11/23 09:46:07;;;;;;;4.20;2.40;;;;;;;;;;5054773;28;20439;-59
2021/11/23 09:48:33;;;;;;;5.97;2.90;;;;;;;;;;5051391;28;20478;-59
2021/11/23 09:51:00;;;;;;;4.00;2.20;;;7.60;1.00;;;;;;5051714;28;20467;-59
2021/11/23 09:53:26;;;;;;;4.83;2.10;;;7.60;1.00;;;;;;5051479;28;20454;-59
2021/11/23 09:55:53;;;;;;;4.60;2.43;;;7.70;1.00;;;;;;5052019;28;20443;-61
2021/11/23 09:58:22;;;;;;;4.47;2.20;;;7.70;1.00;;;;;;5052003;28;20212;-59
2021/11/23 10:00:50;;;;;;;4.07;2.53;;;7.70;1.00;;;;;;5051633;28;20453;-60
2021/11/23 10:03:29;;;;;;;4.07;2.70;;;7.80;1.00;;;;;;5051661;28;20439;-58
2021/11/23 10:06:07;;;;;;;4.07;2.53;;;7.80;1.00;;;;;;5050248;28;20442;-58
2021/11/23 10:08:34;;;;;;;5.43;2.00;;;7.90;1.00;;;;;;5051246;28;20489;-60
2021/11/23 10:11:00;;;;;;;2.87;2.20;;;;;;;;;;5050971;28;20470;-59
2021/11/23 10:13:38;;;;;;;3.60;2.47;;;7.80;1.00;;;;;;5051570;28;20501;-58
2021/11/23 10:16:04;;;;;;;4.70;2.20;;;;;;;;;;5051278;28;20510;-59
2021/11/23 10:18:30;;;;;;;5.53;3.00;;;8.00;1.00;;;;;;5051439;28;20484;-59
2021/11/23 10:20:58;;;;;;;6.23;2.30;;;8.00;1.00;;;;;;5051375;28;20423;-60
2021/11/23 10:23:34;;;;;;;4.03;2.17;;;8.00;1.00;;;;;;5051198;28;20287;-61
2021/11/23 10:26:08;;;;;;;2.87;2.00;;;7.90;1.00;;;;;;5051319;28;20439;-58
2021/11/23 10:28:34;;;;;;;3.57;2.50;;;;;;;;;;5050297;28;20439;-59
2021/11/23 10:31:04;;;;;;;5.60;2.50;;;8.00;1.00;;;;;;5051204;28;20432;-60
2021/11/23 10:33:33;;;;;;;8.63;3.13;;;8.10;1.00;;;;;;5049773;28;20467;-59
2021/11/23 10:35:59;;;;;;;4.97;2.33;;;8.40;1.00;;;;;;5051088;28;20498;-57
2021/11/23 10:38:27;;;;;;;4.80;2.10;;;8.20;1.00;;;;;;5050846;28;20427;-59
2021/11/23 10:40:54;;;;;;;5.40;2.30;;;;;;;;;;5050663;28;20464;-59
2021/11/23 10:43:21;;;;;;;5.23;2.40;;;;;;;;;;5050465;28;20529;-59
2021/11/23 10:45:54;;;;;;;4.17;2.40;;;8.40;1.00;;;;;;5050368;28;20434;-59
2021/11/23 10:48:25;;;;;;;8.63;2.50;;;8.10;1.00;;;;;;5050635;28;20791;-59
2021/11/23 10:51:05;;;;;;;3.47;2.10;;;7.90;1.00;;;;;;5050127;28;20448;-59
2021/11/23 10:53:32;;;;;;;5.20;2.60;;;8.00;1.00;;;;;;5050317;28;20442;-59
2021/11/23 10:56:24;;;;;;;5.00;2.30;;;7.90;1.00;;;;;;5050366;28;20930;-59
2021/11/23 10:58:49;;;;;;;5.50;2.40;;;7.80;1.00;;;;;;5048908;28;20474;-59
2021/11/23 11:01:17;;;;;;;2.90;1.93;;;;;;;;;;5050545;28;20473;-58
2021/11/23 11:03:44;;;;;;;2.90;2.27;;;7.40;1.00;;;;;;5050293;28;20449;-60
2021/11/23 11:06:11;;;;;;;5.33;2.40;;;7.70;1.00;;;;;;5050213;28;20414;-59
2021/11/23 11:08:45;;;;;;;4.50;2.30;;;7.80;1.00;;;;;;5050359;28;20959;-58
2021/11/23 11:11:16;;;;;;;4.13;2.73;;;8.10;1.00;;;;;;5049096;28;20466;-59
2021/11/23 11:13:48;;;;;;;5.10;3.00;;;7.70;1.00;;;;;;5050203;28;20413;-58
2021/11/23 11:16:16;;;;;;;3.00;2.47;;;7.90;1.00;;;;;;5050310;28;20435;-57
2021/11/23 11:19:05;;;;;;;4.00;2.63;;;8.00;1.00;;;;;;5050367;28;20410;-59
2021/11/23 11:21:31;;;;;;;6.53;3.20;;;;;;;;;;5050259;28;20445;-58
2021/11/23 11:24:16;;;;;;;4.67;2.60;;;;;;;;;;5050017;28;20439;-58
2021/11/23 11:26:42;;;;;;;7.20;3.03;;;8.00;1.00;;;;;;5049867;28;20538;-58
2021/11/23 11:29:08;;;;;;;4.30;2.10;;;;;;;;;;5049336;28;20931;-59
2021/11/23 11:31:39;;;;;;;4.73;3.17;;;8.00;1.00;;;;;;5050272;28;20257;-59
2021/11/23 11:34:31;;;;;;;3.90;2.40;;;7.90;1.00;;;;;;5050064;28;20435;-59
2021/11/23 11:36:58;;;;;;;4.23;2.63;;;7.90;1.00;;;;;;5050132;28;20820;-60
2021/11/23 11:39:41;;;;;;;10.20;2.93;;;7.80;1.00;;;;;;5050207;28;20418;-57
2021/11/23 11:42:31;;;;;;;9.30;3.60;;;7.80;1.00;;;;;;5050032;28;20416;-59
2021/11/23 11:44:58;;;;;;;7.30;3.00;;;;;;;;;;5046591;28;20414;-58
2021/11/23 11:47:37;;;;;;;4.33;2.90;;;8.00;1.00;;;;;;5049630;28;20469;-58
2021/11/23 11:50:07;;;;;;;8.33;3.60;;;8.00;1.00;;;;;;5049758;28;20502;-58
2021/11/23 11:53:00;;;;;;;7.23;3.60;;;8.00;1.00;;;;;;5051047;28;20725;-58
2021/11/23 11:55:28;;;;;;;5.17;3.13;;;8.00;1.00;;;;;;5053921;28;20443;-59
2021/11/23 11:57:55;;;;;;;5.13;2.60;;;8.00;1.00;;;;;;5053309;28;20463;-58
2021/11/23 12:00:26;;;;;;;12.57;4.20;;;8.20;1.00;;;;;;5053680;28;20758;-58
2021/11/23 12:02:54;;;;;;;5.23;3.57;;;8.10;1.00;;;;;;5053810;28;20920;-59
2021/11/23 12:05:20;;;;;;;6.57;3.50;;;8.10;1.00;;;;;;5053791;28;20439;-59
2021/11/23 12:07:52;;;;;;;3.90;3.40;;;;;;;;;;5071379;28;20416;-59
2021/11/23 12:10:21;;;;;;;8.83;3.90;;;;;;;;;;5073713;28;20556;-60
2021/11/23 12:12:55;;;;;;;7.30;3.57;;;7.70;1.00;;;;;;5072367;28;20442;-59
2021/11/23 12:15:57;;;;;;;5.93;4.03;;;7.60;1.00;;;;;;5073509;28;20794;-59
2021/11/23 12:18:33;;;;;;;5.23;3.40;;;7.60;1.00;;;;;;5073498;28;20437;-58
2021/11/23 12:20:59;;;;;;;6.17;4.07;;;;;;;;;;5073413;28;20521;-58
2021/11/23 12:23:57;;;;;;;6.13;4.60;;;7.60;1.00;;;;;;5073553;28;20462;-58
2021/11/23 12:26:36;;;;;;;4.23;3.83;;;7.60;1.00;;;;;;5073437;28;20438;-60
2021/11/23 12:29:11;;;;;;;7.73;4.33;;;7.70;1.00;;;;;;5056896;28;20964;-59
2021/11/23 12:31:44;;;;;;;8.20;4.17;;;7.70;1.00;;;;;;5052725;28;20508;-58
2021/11/23 12:34:10;;;;;;;6.53;4.83;;;7.80;1.00;;;;;;5053233;28;20443;-59
2021/11/23 12:36:39;;;;;;;5.47;4.97;;;7.90;1.00;;;;;;5053338;28;20572;-58
2021/11/23 12:39:14;;;;;;;6.00;4.50;;;7.90;1.00;;;;;;5053173;28;20419;-59
2021/11/23 12:41:42;;;;;;;11.50;6.57;;;8.00;1.00;;;;;;5053450;28;20450;-59
2021/11/23 12:44:22;;;;;;;9.37;6.33;;;8.00;1.00;;;;;;5053010;28;20462;-58
2021/11/23 12:47:00;;;;;;;4.90;4.40;;;8.00;1.00;;;;;;5052877;28;20446;-58
2021/11/23 12:49:28;;;;;;;7.33;4.60;;;8.00;1.00;;;;;;5052921;28;20494;-59
2021/11/23 12:52:09;;;;;;;8.10;5.40;;;8.00;1.00;;;;;;5052857;28;20555;-59
2021/11/23 12:54:40;;;;;;;6.00;4.37;;;8.10;1.00;;;;;;5052806;28;20501;-60
2021/11/23 12:57:10;;;;;;;8.50;4.97;;;8.00;1.00;;;;;;5052629;28;20435;-59
2021/11/23 12:59:36;;;;;;;6.17;5.57;;;;;;;;;;5050892;28;20431;-59
2021/11/23 13:02:23;;;;;;;9.73;5.60;;;7.70;1.00;;;;;;5052731;28;20430;-58
2021/11/23 13:04:49;;;;;;;10.43;4.53;;;7.60;1.00;;;;;;5050691;28;20463;-59
2021/11/23 13:07:15;;;;;;;10.13;5.43;;;;;;;;;;5052465;28;20913;-58
2021/11/23 13:09:44;;;;;;;8.87;5.50;;;7.70;1.00;;;;;;5052376;28;20450;-60
2021/11/23 13:12:10;;;;;;;8.40;5.67;;;;;;;;;;5052686;28;20439;-60
2021/11/23 13:14:52;;;;;;;13.07;5.40;;;7.60;1.00;;;;;;5052358;28;20530;-60
2021/11/23 13:17:50;;;;;;;7.53;5.33;;;7.70;1.00;;;;;;5052780;28;20537;-61
2021/11/23 13:20:25;;;;;;;9.23;5.60;;;7.60;1.00;;;;;;5052076;28;20435;-60
2021/11/23 13:22:57;;;;;;;7.10;5.10;;;7.70;1.00;;;;;;5052354;28;20854;-60
2021/11/23 13:25:27;;;;;;;9.60;5.70;;;7.70;1.00;;;;;;5052386;28;20467;-58
2021/11/23 13:27:53;;;;;;;7.43;5.37;;;7.60;1.00;;;;;;5052092;28;20439;-60
2021/11/23 13:30:38;;;;;;;7.53;5.53;;;7.60;1.00;;;;;;5052155;28;20524;-59
2021/11/23 13:33:19;;;;;;;8.97;5.30;;;7.70;1.00;;;;;;5052816;28;20819;-59
2021/11/23 13:36:00;;;;;;;9.13;6.00;;;8.20;1.00;;;;;;5051892;28;20474;-58
2021/11/23 13:39:07;;;;;;;10.73;5.30;;;7.50;1.00;;;;;;5052029;28;20451;-59
2021/11/23 13:41:34;;;;;;;11.30;5.97;;;7.60;1.00;;;;;;5052285;28;20437;-59
2021/11/23 13:44:03;;;;;;;9.43;5.20;;;7.70;1.00;;;;;;5051829;28;20435;-60